Time;durP1;ratioP1;P1;durP2;ratioP2;P2;SDS_P1;SDS_P2;PMS_P1;PMS_P2;Temp;Humidity;BMP_temperature;BMP_pressure;BME280_temperature;BME280_humidity;BME280_pressure;Samples;Min_cycle;Max_cycle;Signal;HPM_P1;HPM_P2
2022/10/24 00:02:23;;;;;;;8.38;2.63;;;;;;;14.32;95.07;100283.22;5017598;28;20481;-75
2022/10/24 00:04:49;;;;;;;9.85;2.15;;;;;;;14.27;94.88;100280.09;5023073;28;20038;-75
2022/10/24 00:07:14;;;;;;;8.77;2.15;;;;;;;14.28;94.92;100281.81;5008575;28;20504;-75
2022/10/24 00:09:39;;;;;;;6.82;2.22;;;;;;;14.29;94.36;100276.16;5012774;28;20034;-75
2022/10/24 00:12:06;;;;;;;7.13;1.80;;;;;;;14.32;93.79;100274.16;5015434;28;20026;-75
2022/10/24 00:14:33;;;;;;;8.02;2.00;;;;;;;14.31;93.32;100273.28;5013118;28;20045;-75
2022/10/24 00:16:59;;;;;;;8.05;2.22;;;;;;;14.29;93.21;100272.56;5011579;28;20099;-75
2022/10/24 00:19:24;;;;;;;7.70;2.70;;;;;;;14.25;93.25;100268.41;5026383;28;20072;-75
2022/10/24 00:21:49;;;;;;;10.20;2.40;;;;;;;14.24;93.27;100274.91;5029593;28;20044;-76
2022/10/24 00:24:15;;;;;;;4.25;1.88;;;;;;;14.21;93.18;100273.31;5026820;28;20041;-76
2022/10/24 00:26:41;;;;;;;9.75;2.30;;;;;;;14.19;92.86;100266.28;5018789;28;20554;-75
2022/10/24 00:29:07;;;;;;;8.60;2.83;;;;;;;14.21;92.22;100262.38;5026448;28;20037;-75
2022/10/24 00:31:32;;;;;;;7.88;2.45;;;;;;;14.24;91.87;100264.81;5028037;28;20033;-75
2022/10/24 00:33:59;;;;;;;4.47;1.65;;;;;;;14.25;91.86;100269.25;5027874;28;20057;-75
2022/10/24 00:36:25;;;;;;;6.15;1.98;;;;;;;14.27;91.42;100266.41;5024030;28;20397;-75
2022/10/24 00:38:51;;;;;;;6.70;2.08;;;;;;;14.27;90.79;100267.25;5021194;28;20037;-76
2022/10/24 00:41:20;;;;;;;8.25;2.25;;;;;;;14.29;90.64;100272.56;5010108;28;20500;-75
2022/10/24 00:43:46;;;;;;;7.85;1.92;;;;;;;14.24;90.50;100267.56;5008371;28;20107;-75
2022/10/24 00:46:13;;;;;;;7.28;2.22;;;;;;;14.25;90.72;100263.78;5008340;28;20029;-75
2022/10/24 00:48:48;;;;;;;7.82;2.28;;;;;;;14.25;90.86;100266.53;5009788;28;20038;-75
2022/10/24 00:51:17;;;;;;;10.18;2.55;;;;;;;14.24;90.26;100267.56;5009279;28;20049;-75
2022/10/24 00:53:46;;;;;;;10.82;2.70;;;;;;;14.23;89.70;100264.97;5009918;28;20034;-75
2022/10/24 00:56:15;;;;;;;7.20;2.03;;;;;;;14.25;89.62;100261.06;5022538;28;20436;-75
2022/10/24 00:58:42;;;;;;;6.78;2.00;;;;;;;14.28;89.36;100260.78;5026392;28;20041;-75
2022/10/24 01:01:08;;;;;;;11.43;2.63;;;;;;;14.28;89.16;100259.91;5009322;28;20045;-75
2022/10/24 01:03:33;;;;;;;5.30;2.20;;;;;;;14.20;89.41;100260.66;5015455;28;20380;-75
2022/10/24 01:06:22;;;;;;;6.57;2.13;;;;;;;14.19;89.38;100263.53;5018360;28;20052;-75
2022/10/24 01:08:53;;;;;;;9.90;2.25;;;;;;;14.15;89.51;100252.03;5010943;28;20400;-75
2022/10/24 01:11:49;;;;;;;11.20;2.47;;;;;;;14.11;89.81;100260.69;5009367;28;20050;-75
2022/10/24 01:14:50;;;;;;;8.18;2.28;;;;;;;14.07;89.26;100243.69;5010283;28;20033;-75
2022/10/24 01:17:35;;;;;;;8.73;2.83;;;;;;;14.18;89.07;100249.00;5010541;28;20505;-75
2022/10/24 01:20:29;;;;;;;6.47;2.33;;;;;;;14.20;89.02;100251.59;5017690;28;20386;-75
2022/10/24 01:23:19;;;;;;;6.13;2.35;;;;;;;14.20;88.41;100251.59;5015758;28;20046;-75
2022/10/24 01:26:05;;;;;;;5.70;3.42;;;;;;;14.18;88.49;100248.16;5014969;28;20091;-74
2022/10/24 01:29:15;;;;;;;6.60;3.05;;;;;;;14.15;89.15;100238.34;5018399;28;20034;-75
2022/10/24 01:31:52;;;;;;;8.75;3.22;;;;;;;14.17;88.53;100244.50;4954946;28;20451;-76
2022/10/24 01:34:32;;;;;;;4.75;2.30;;;;;;;14.20;87.48;100238.75;4945635;28;20056;-75
2022/10/24 01:37:07;;;;;;;7.53;2.35;;;;;;;14.20;87.55;100241.50;4996631;28;20064;-75
2022/10/24 01:39:39;;;;;;;9.95;2.20;;;;;;;14.18;87.39;100234.47;5021948;28;20037;-75
2022/10/24 01:42:09;;;;;;;;;;;;;;;14.19;87.23;100241.66;5021732;28;20037;-75
2022/10/24 01:44:41;;;;;;;7.28;2.40;;;;;;;14.17;87.53;100239.03;5024091;28;19913;-75
2022/10/24 01:47:09;;;;;;;;;;;;;;;14.20;88.04;100238.75;5017856;28;20431;-76
2022/10/24 01:49:38;;;;;;;4.75;2.25;;;;;;;14.20;86.40;100230.56;5015862;28;19924;-75
2022/10/24 01:52:08;;;;;;;10.18;2.85;;;;;;;14.23;85.92;100215.72;5019122;28;20480;-76
2022/10/24 01:54:36;;;;;;;3.95;2.28;;;;;;;14.20;86.46;100219.59;5014528;28;20092;-76
2022/10/24 01:57:01;;;;;;;6.40;2.95;;;;;;;14.21;85.30;100212.25;5014461;28;20053;-75
2022/10/24 01:59:29;;;;;;;6.57;2.22;;;;;;;14.17;86.21;100216.31;5028768;28;20089;-75
2022/10/24 02:02:02;;;;;;;7.88;2.28;;;;;;;14.14;85.73;100211.16;5030376;28;20061;-75
2022/10/24 02:04:31;;;;;;;9.65;2.80;;;;;;;14.08;86.02;100212.59;5013940;28;20184;-76
2022/10/24 02:07:01;;;;;;;13.20;3.97;;;;;;;14.04;86.28;100216.66;5014768;28;20397;-76
2022/10/24 02:09:28;;;;;;;7.72;2.65;;;;;;;14.09;85.74;100216.22;5016733;28;20123;-76
2022/10/24 02:11:57;;;;;;;10.38;2.15;;;;;;;14.06;85.30;100219.22;5019442;28;20476;-75
2022/10/24 02:14:34;;;;;;;10.77;2.13;;;;;;;14.12;84.69;100218.63;5019495;28;20129;-75
2022/10/24 02:17:02;;;;;;;15.88;2.38;;;;;;;14.13;84.68;100213.03;5017798;28;20076;-75
2022/10/24 02:19:29;;;;;;;5.78;1.88;;;;;;;14.15;84.36;100216.47;5017334;28;20029;-75
2022/10/24 02:22:10;;;;;;;9.90;1.90;;;;;;;14.16;84.15;100215.44;5032014;28;20039;-75
2022/10/24 02:25:06;;;;;;;7.82;2.15;;;;;;;14.11;85.23;100219.66;5018587;28;20079;-75
2022/10/24 02:27:37;;;;;;;4.78;2.08;;;;;;;14.15;83.49;100221.94;5011725;28;20046;-76
2022/10/24 02:30:24;;;;;;;7.88;2.83;;;;;;;14.16;84.59;100207.25;5010856;28;20292;-76
2022/10/24 02:32:55;;;;;;;6.43;2.00;;;;;;;14.12;84.36;100204.94;5010837;28;20030;-76
2022/10/24 02:35:25;;;;;;;4.78;1.60;;;;;;;14.09;83.80;100217.06;5010977;28;20549;-75
2022/10/24 02:37:56;;;;;;;5.35;1.67;;;;;;;14.14;82.75;100211.16;5010829;28;20430;-76
2022/10/24 02:40:22;;;;;;;15.48;2.50;;;;;;;14.17;83.15;100216.31;5011123;28;20030;-76
2022/10/24 02:42:51;;;;;;;8.07;1.75;;;;;;;14.14;83.51;100216.63;5011290;28;20025;-76
2022/10/24 02:45:18;;;;;;;5.82;2.00;;;;;;;14.12;83.68;100214.00;5010744;28;20438;-75
2022/10/24 02:47:44;;;;;;;7.60;1.73;;;;;;;14.08;82.92;100209.00;5009357;28;20065;-75
2022/10/24 02:50:10;;;;;;;9.65;2.03;;;;;;;14.06;82.98;100211.88;5014311;28;20266;-76
2022/10/24 02:52:37;;;;;;;12.30;2.47;;;;;;;14.11;83.00;100214.19;5017119;28;20034;-75
2022/10/24 02:55:04;;;;;;;6.15;1.80;;;;;;;14.10;82.50;100218.78;5019372;28;20197;-76
2022/10/24 02:57:29;;;;;;;8.52;2.08;;;;;;;14.13;82.58;100218.50;5022876;28;20033;-74
2022/10/24 02:59:54;;;;;;;7.07;1.80;;;;;;;14.20;82.00;100219.59;5011049;28;20042;-75
2022/10/24 03:02:21;;;;;;;4.53;1.50;;;;;;;14.23;82.10;100213.00;5009753;28;20385;-75
2022/10/24 03:04:46;;;;;;;3.10;1.63;;;;;;;14.26;80.89;100209.94;5015156;28;20061;-75
2022/10/24 03:07:12;;;;;;;5.32;1.70;;;;;;;14.26;81.28;100210.78;5010246;28;20065;-75
2022/10/24 03:09:37;;;;;;;10.50;1.70;;;;;;;14.27;81.82;100223.47;5010501;28;20034;-75
2022/10/24 03:12:03;;;;;;;6.30;1.85;;;;;;;14.26;80.69;100221.72;5009820;28;20087;-75
2022/10/24 03:14:28;;;;;;;4.88;1.55;;;;;;;14.24;81.36;100228.38;5011379;28;20108;-75
2022/10/24 03:16:54;;;;;;;3.95;1.58;;;;;;;14.23;81.50;100237.63;5020201;28;20572;-76
2022/10/24 03:19:19;;;;;;;9.77;1.67;;;;;;;14.27;80.96;100222.63;5014986;28;20048;-75
2022/10/24 03:21:45;;;;;;;6.07;1.50;;;;;;;14.28;80.92;100218.88;5013142;28;20438;-75
2022/10/24 03:24:10;;;;;;;6.63;1.60;;;;;;;14.24;81.39;100221.03;5017276;28;20030;-75
2022/10/24 03:26:36;;;;;;;6.88;1.45;;;;;;;14.20;81.79;100218.75;5014131;28;20061;-75
2022/10/24 03:29:01;;;;;;;4.97;2.10;;;;;;;14.17;81.74;100217.16;5017570;28;20540;-75
2022/10/24 03:31:27;;;;;;;3.03;1.60;;;;;;;14.19;81.44;100226.09;5013831;28;20039;-75
2022/10/24 03:33:52;;;;;;;7.00;2.00;;;;;;;14.15;81.62;100221.94;5012139;28;20108;-75
2022/10/24 03:36:18;;;;;;;7.75;1.52;;;;;;;14.12;81.94;100216.75;5009138;28;20033;-75
2022/10/24 03:38:43;;;;;;;3.97;1.20;;;;;;;14.15;82.13;100219.19;5027267;28;20130;-74
2022/10/24 03:41:09;;;;;;;4.22;1.48;;;;;;;14.19;81.12;100208.81;5013360;28;20038;-75
2022/10/24 03:43:34;;;;;;;6.63;1.90;;;;;;;14.22;81.42;100203.03;5010384;28;20108;-75
2022/10/24 03:46:00;;;;;;;8.07;2.00;;;;;;;14.22;81.52;100200.28;5014651;28;20041;-75
2022/10/24 03:48:26;;;;;;;5.65;1.80;;;;;;;14.20;81.13;100191.38;5013570;28;20080;-75
2022/10/24 03:50:51;;;;;;;5.53;1.50;;;;;;;14.16;81.48;100198.16;5011195;28;20446;-75
2022/10/24 03:53:16;;;;;;;8.05;2.03;;;;;;;14.17;82.03;100202.63;5013381;28;20396;-74
2022/10/24 03:55:42;;;;;;;5.15;1.70;;;;;;;14.14;82.49;100189.28;5016554;28;20386;-75
2022/10/24 03:58:07;;;;;;;6.78;2.00;;;;;;;14.11;82.40;100198.63;5024993;28;20046;-75
2022/10/24 04:00:37;;;;;;;3.42;1.63;;;;;;;14.12;81.97;100194.88;5008423;28;20420;-75
2022/10/24 04:03:03;;;;;;;3.47;1.52;;;;;;;14.13;81.87;100204.81;5025735;28;20526;-75
2022/10/24 04:05:29;;;;;;;6.00;1.60;;;;;;;14.11;82.40;100197.75;5020583;28;20112;-76
2022/10/24 04:07:54;;;;;;;5.97;1.73;;;;;;;14.14;80.97;100197.47;5027570;28;20033;-75
2022/10/24 04:10:20;;;;;;;5.28;1.50;;;;;;;14.17;82.04;100205.34;5024860;28;20041;-75
2022/10/24 04:12:45;;;;;;;9.93;2.15;;;;;;;14.16;82.19;100211.84;5017422;28;20389;-75
2022/10/24 04:15:10;;;;;;;5.65;1.83;;;;;;;14.16;81.93;100207.25;5018525;28;20445;-75
2022/10/24 04:17:36;;;;;;;5.80;1.83;;;;;;;14.27;81.43;100211.69;5009947;28;20180;-76
2022/10/24 04:20:02;;;;;;;5.03;2.00;;;;;;;14.32;81.43;100200.28;5020631;28;20037;-75
2022/10/24 04:22:27;;;;;;;7.05;1.60;;;;;;;14.33;80.68;100191.06;5029748;28;20030;-75
2022/10/24 04:24:52;;;;;;;5.88;1.60;;;;;;;14.36;81.35;100201.69;5022699;28;20367;-76
2022/10/24 04:27:18;;;;;;;7.93;1.83;;;;;;;14.31;81.14;100191.19;5009657;28;20079;-76
2022/10/24 04:29:43;;;;;;;7.25;1.65;;;;;;;14.27;81.44;100190.66;5009339;28;20042;-74
2022/10/24 04:32:09;;;;;;;4.50;1.60;;;;;;;14.28;81.48;100205.19;5026886;28;20160;-76
2022/10/24 04:34:35;;;;;;;6.50;2.95;;;;;;;14.26;81.04;100197.09;5025485;28;20103;-76
2022/10/24 04:37:00;;;;;;;5.38;2.10;;;;;;;14.26;81.02;100188.91;5009490;28;20061;-76
2022/10/24 04:39:26;;;;;;;6.53;1.55;;;;;;;14.26;80.61;100194.38;5013535;28;20608;-74
2022/10/24 04:41:51;;;;;;;5.65;1.40;;;;;;;14.25;81.05;100202.75;5018238;28;20113;-75
2022/10/24 04:44:17;;;;;;;4.50;1.80;;;;;;;14.32;80.56;100192.06;5027019;28;20492;-75
2022/10/24 04:46:43;;;;;;;8.73;1.33;;;;;;;14.33;80.46;100191.91;5030558;28;20027;-76
2022/10/24 04:49:08;;;;;;;8.25;1.40;;;;;;;14.31;80.80;100196.66;5029629;28;20219;-76
2022/10/24 04:51:34;;;;;;;4.70;1.50;;;;;;;14.31;80.56;100191.19;5021776;28;20068;-76
2022/10/24 04:53:59;;;;;;;9.05;1.40;;;;;;;14.29;80.95;100194.09;5009241;28;20069;-76
2022/10/24 04:56:25;;;;;;;7.07;1.60;;;;;;;14.32;80.95;100203.03;5017424;28;20028;-76
2022/10/24 04:58:51;;;;;;;7.00;1.20;;;;;;;14.30;80.41;100200.41;5019820;28;20037;-75
2022/10/24 05:01:17;;;;;;;9.55;1.50;;;;;;;14.30;81.38;100206.75;5021879;28;20402;-75
2022/10/24 05:03:42;;;;;;;4.18;1.65;;;;;;;14.36;81.00;100198.94;5016909;28;20350;-76
2022/10/24 05:06:07;;;;;;;5.70;1.30;;;;;;;14.39;79.99;100213.19;5009481;28;20084;-75
2022/10/24 05:08:33;;;;;;;7.07;1.50;;;;;;;14.41;80.53;100200.22;5014181;28;20051;-75
2022/10/24 05:10:58;;;;;;;4.40;1.20;;;;;;;14.42;79.95;100198.34;5013035;28;20066;-76
2022/10/24 05:13:24;;;;;;;4.70;1.33;;;;;;;14.41;79.95;100202.97;5008847;28;20473;-75
2022/10/24 05:15:49;;;;;;;5.10;1.65;;;;;;;14.41;80.45;100204.81;5008922;28;20536;-75
2022/10/24 05:18:14;;;;;;;4.75;1.30;;;;;;;14.36;80.60;100213.50;5009158;28;20053;-75
2022/10/24 05:20:40;;;;;;;4.65;1.58;;;;;;;14.35;80.18;100209.03;5015347;28;20022;-76
2022/10/24 05:23:05;;;;;;;9.63;1.60;;;;;;;14.39;80.98;100215.06;5008851;28;20052;-74
2022/10/24 05:25:30;;;;;;;5.93;1.50;;;;;;;14.42;80.65;100212.03;5007548;28;20450;-75
2022/10/24 05:27:56;;;;;;;8.82;1.80;;;;;;;14.43;81.03;100221.97;5017384;28;20052;-76
2022/10/24 05:30:21;;;;;;;5.57;1.75;;;;;;;14.44;81.60;100221.81;5025990;28;20460;-75
2022/10/24 05:32:47;;;;;;;10.10;1.90;;;;;;;14.49;81.27;100235.94;5015828;28;20068;-76
2022/10/24 05:35:12;;;;;;;7.07;1.50;;;;;;;14.47;81.79;100232.47;5019147;28;20046;-75
2022/10/24 05:37:38;;;;;;;7.43;1.80;;;;;;;14.56;80.35;100222.50;5007860;28;20053;-76
2022/10/24 05:40:08;;;;;;;7.25;1.60;;;;;;;14.64;80.06;100219.00;5008556;28;20091;-76
2022/10/24 05:42:34;;;;;;;9.85;1.88;;;;;;;14.62;81.00;100224.63;5008813;28;20029;-75
2022/10/24 05:44:59;;;;;;;9.05;2.35;;;;;;;14.63;80.75;100234.56;5008547;28;20042;-76
2022/10/24 05:47:25;;;;;;;7.35;1.60;;;;;;;14.66;80.54;100225.19;5017085;28;20041;-75
2022/10/24 05:49:50;;;;;;;10.07;1.95;;;;;;;14.68;80.79;100231.38;5011737;28;20054;-75
2022/10/24 05:52:15;;;;;;;7.05;1.92;;;;;;;14.65;80.48;100228.97;5009450;28;20041;-75
2022/10/24 05:54:41;;;;;;;6.07;1.35;;;;;;;14.67;80.10;100226.91;5009316;28;20068;-75
2022/10/24 05:57:06;;;;;;;7.32;1.98;;;;;;;14.63;80.56;100220.00;5015752;28;20026;-75
2022/10/24 05:59:31;;;;;;;5.88;1.38;;;;;;;14.63;80.24;100230.97;5011761;28;20038;-75
2022/10/24 06:01:57;;;;;;;10.38;1.92;;;;;;;14.64;80.33;100241.78;5017281;28;20025;-75
2022/10/24 06:04:22;;;;;;;8.73;1.95;;;;;;;14.65;80.04;100231.69;5030428;28;20041;-74
2022/10/24 06:06:47;;;;;;;5.70;1.20;;;;;;;14.59;80.48;100238.63;5012537;28;20033;-76
2022/10/24 06:09:14;;;;;;;10.93;1.65;;;;;;;14.57;80.36;100240.66;5018729;28;20113;-76
2022/10/24 06:11:39;;;;;;;6.93;1.67;;;;;;;14.54;80.49;100238.22;5019332;28;20079;-75
2022/10/24 06:14:05;;;;;;;7.22;1.85;;;;;;;14.52;80.46;100232.91;5015103;28;20049;-77
2022/10/24 06:16:32;;;;;;;10.52;1.70;;;;;;;14.53;80.44;100245.56;5022261;28;20053;-76
2022/10/24 06:18:58;;;;;;;6.57;1.40;;;;;;;14.48;81.22;100247.03;5021131;28;20052;-75
2022/10/24 06:21:23;;;;;;;4.28;1.42;;;;;;;14.45;80.95;100250.88;5017287;28;20029;-75
2022/10/24 06:23:49;;;;;;;8.90;2.60;;;;;;;14.41;81.40;100240.41;5012080;28;20034;-74
2022/10/24 06:26:15;;;;;;;6.68;1.50;;;;;;;14.36;81.33;100237.25;5017197;28;20061;-75
2022/10/24 06:28:40;;;;;;;6.15;1.67;;;;;;;14.34;81.03;100242.03;5015127;28;20033;-75
2022/10/24 06:31:07;;;;;;;12.60;2.47;;;;;;;14.37;81.48;100234.38;5017650;28;20081;-74
2022/10/24 06:33:33;;;;;;;5.45;1.60;;;;;;;14.37;81.35;100245.34;5016903;28;20033;-75
2022/10/24 06:36:00;;;;;;;11.68;1.85;;;;;;;14.36;81.41;100251.81;5022994;28;20408;-74
2022/10/24 06:38:26;;;;;;;5.88;1.55;;;;;;;14.31;81.93;100254.13;5028378;28;20036;-75
2022/10/24 06:40:52;;;;;;;9.95;2.40;;;;;;;14.27;82.15;100245.38;5013124;28;20156;-75
2022/10/24 06:43:18;;;;;;;6.25;1.50;;;;;;;14.28;82.14;100266.25;5012474;28;20124;-74
2022/10/24 06:45:44;;;;;;;13.77;1.92;;;;;;;14.27;82.40;100280.94;5011364;28;20045;-74
2022/10/24 06:48:10;;;;;;;9.55;1.80;;;;;;;14.26;82.27;100264.66;5012282;28;20034;-75
2022/10/24 06:50:39;;;;;;;9.68;1.70;;;;;;;14.28;82.26;100276.31;5015874;28;20041;-74
2022/10/24 06:53:06;;;;;;;13.13;2.40;;;;;;;14.32;82.20;100274.16;5000659;28;20042;-75
2022/10/24 06:55:32;;;;;;;12.13;2.10;;;;;;;14.36;81.88;100295.59;4993135;28;20125;-75
2022/10/24 06:57:57;;;;;;;8.10;1.83;;;;;;;14.41;82.32;100285.06;4991545;28;20233;-76
2022/10/24 07:00:22;;;;;;;6.80;1.58;;;;;;;14.42;82.32;100286.78;4999437;28;20019;-75
2022/10/24 07:02:48;;;;;;;9.00;1.65;;;;;;;14.48;82.22;100308.13;4991743;28;20054;-75
2022/10/24 07:05:14;;;;;;;17.08;2.08;;;;;;;14.58;82.13;100301.75;4994050;28;20560;-75
2022/10/24 07:07:41;;;;;;;9.48;1.75;;;;;;;14.58;82.18;100294.38;4993746;28;20096;-75
2022/10/24 07:10:09;;;;;;;6.43;1.70;;;;;;;14.56;81.80;100290.09;5001933;28;20074;-74
2022/10/24 07:12:34;;;;;;;9.65;2.10;;;;;;;14.55;82.22;100291.97;4990899;28;20478;-75
2022/10/24 07:14:59;;;;;;;7.65;1.48;;;;;;;14.49;83.25;100301.63;4999726;28;20042;-75
2022/10/24 07:17:25;;;;;;;11.25;2.13;;;;;;;14.43;83.74;100307.66;5003002;28;20080;-74
2022/10/24 07:19:52;;;;;;;5.35;1.83;;;;;;;14.42;84.13;100310.56;5005468;28;20033;-75
2022/10/24 07:22:18;;;;;;;9.48;1.55;;;;;;;14.38;84.19;100301.78;4990156;28;20493;-75
2022/10/24 07:24:44;;;;;;;8.48;1.48;;;;;;;14.46;84.25;100304.66;4990458;28;20029;-75
2022/10/24 07:27:10;;;;;;;8.25;1.65;;;;;;;14.74;83.82;100323.88;4993583;28;20035;-75
2022/10/24 07:29:38;;;;;;;10.70;1.90;;;;;;;14.90;83.22;100332.28;4991123;28;20030;-75
2022/10/24 07:32:03;;;;;;;9.98;1.67;;;;;;;14.89;83.52;100337.94;4996220;28;20433;-76
2022/10/24 07:34:28;;;;;;;9.50;2.00;;;;;;;14.86;83.76;100347.28;5003750;28;20061;-75
2022/10/24 07:36:54;;;;;;;8.32;1.75;;;;;;;14.87;83.35;100350.91;5010693;28;20045;-76
2022/10/24 07:39:19;;;;;;;9.38;1.83;;;;;;;14.84;83.76;100349.34;5005456;28;20490;-76
2022/10/24 07:41:44;;;;;;;14.43;2.08;;;;;;;14.85;83.51;100347.47;4997288;28;20044;-75
2022/10/24 07:44:10;;;;;;;9.13;1.65;;;;;;;14.83;83.36;100347.63;4997980;28;20030;-75
2022/10/24 07:46:36;;;;;;;12.00;2.05;;;;;;;14.92;84.09;100365.88;4990775;28;20034;-75
2022/10/24 07:49:01;;;;;;;11.65;2.10;;;;;;;14.98;83.25;100359.78;4990883;28;20030;-75
2022/10/24 07:51:28;;;;;;;6.53;1.42;;;;;;;14.99;82.56;100363.41;4990698;28;20062;-76
2022/10/24 07:53:56;;;;;;;10.73;1.98;;;;;;;14.98;83.15;100378.97;4999430;28;20112;-74
2022/10/24 07:56:21;;;;;;;9.80;1.70;;;;;;;14.96;83.24;100391.94;4992876;28;20125;-75
2022/10/24 07:58:47;;;;;;;15.00;1.80;;;;;;;14.94;83.46;100388.50;4990522;28;20106;-74
2022/10/24 08:01:21;;;;;;;10.60;1.88;;;;;;;14.98;83.22;100380.84;4989617;28;20041;-75
2022/10/24 08:03:46;;;;;;;8.18;1.75;;;;;;;15.00;83.17;100382.41;4990635;28;20053;-75
2022/10/24 08:06:15;;;;;;;10.25;1.92;;;;;;;15.05;82.69;100374.59;4987348;28;20033;-75
2022/10/24 08:08:40;;;;;;;13.32;2.03;;;;;;;15.04;82.35;100374.75;4989675;28;20038;-74
2022/10/24 08:11:11;;;;;;;7.95;1.38;;;;;;;15.05;82.25;100391.03;4996745;28;20155;-75
2022/10/24 08:13:37;;;;;;;6.72;2.30;;;;;;;15.05;81.81;100396.50;5006754;28;20092;-75
2022/10/24 08:16:08;;;;;;;10.40;1.67;;;;;;;15.06;81.47;100397.38;5005000;28;20038;-75
2022/10/24 08:18:34;;;;;;;7.45;1.40;;;;;;;15.08;82.31;100399.97;5006866;28;20041;-74
2022/10/24 08:21:02;;;;;;;6.80;1.45;;;;;;;15.17;82.43;100410.03;5008839;28;20596;-74
2022/10/24 08:23:27;;;;;;;13.20;2.00;;;;;;;15.26;82.44;100407.25;5004492;28;20384;-74
2022/10/24 08:25:53;;;;;;;8.93;1.63;;;;;;;15.32;81.04;100406.63;4992882;28;20120;-75
2022/10/24 08:28:18;;;;;;;8.98;2.05;;;;;;;15.38;80.78;100412.50;4988779;28;20033;-74
2022/10/24 08:30:44;;;;;;;9.70;1.50;;;;;;;15.39;80.68;100411.50;4990295;28;20048;-74
2022/10/24 08:33:09;;;;;;;10.50;2.28;;;;;;;15.37;80.96;100403.44;4990381;28;20153;-75
2022/10/24 08:35:34;;;;;;;5.68;1.70;;;;;;;15.38;80.14;100409.78;4990554;28;20046;-75
2022/10/24 08:38:00;;;;;;;6.28;1.77;;;;;;;15.40;79.69;100399.53;4994971;28;20042;-75
2022/10/24 08:40:26;;;;;;;6.43;1.50;;;;;;;15.45;80.90;100409.00;4999804;28;20022;-75
2022/10/24 08:42:52;;;;;;;6.35;1.40;;;;;;;15.50;80.53;100414.03;4989649;28;20042;-74
2022/10/24 08:45:33;;;;;;;11.70;1.90;;;;;;;15.52;80.20;100417.47;4992136;28;20046;-75
2022/10/24 08:48:17;;;;;;;5.93;1.30;;;;;;;15.53;78.95;100427.44;4990235;28;20556;-74
2022/10/24 08:50:49;;;;;;;8.68;1.38;;;;;;;15.55;78.99;100426.25;4999453;28;20039;-75
2022/10/24 08:53:26;;;;;;;7.75;1.42;;;;;;;15.63;79.39;100422.75;5000961;28;20077;-74
2022/10/24 08:55:54;;;;;;;9.95;1.77;;;;;;;15.68;78.74;100422.34;4995085;28;20128;-75
2022/10/24 08:58:30;;;;;;;6.10;1.17;;;;;;;15.69;78.69;100419.44;4989920;28;20038;-74
2022/10/24 09:01:00;;;;;;;8.77;1.42;;;;;;;15.74;77.33;100429.94;4989817;28;20405;-76
2022/10/24 09:03:37;;;;;;;11.18;1.73;;;;;;;15.75;76.68;100427.03;4992236;28;20042;-75
2022/10/24 09:06:06;;;;;;;7.32;1.38;;;;;;;15.78;76.82;100423.13;4990497;28;20124;-74
2022/10/24 09:08:46;;;;;;;7.35;1.30;;;;;;;15.81;77.18;100431.06;4996530;28;20046;-75
2022/10/24 09:11:24;;;;;;;6.65;1.00;;;;;;;15.86;76.37;100428.72;4996320;28;20041;-75
2022/10/24 09:13:50;;;;;;;7.55;1.38;;;;;;;15.92;76.66;100428.06;4990775;28;20038;-75
2022/10/24 09:16:20;;;;;;;3.30;1.00;;;;;;;15.97;75.17;100439.44;4991199;28;20060;-74
2022/10/24 09:18:50;;;;;;;5.43;1.27;;;;;;;15.99;76.32;100442.91;4989809;28;20080;-75
2022/10/24 09:21:15;;;;;;;14.05;2.08;;;;;;;16.05;75.39;100452.38;4991708;28;20061;-75
2022/10/24 09:23:42;;;;;;;10.57;1.65;;;;;;;16.16;75.61;100456.78;4992960;28;20423;-75
2022/10/24 09:26:15;;;;;;;6.13;1.40;;;;;;;16.28;75.04;100455.53;4989211;28;20499;-75
2022/10/24 09:28:41;;;;;;;11.40;1.60;;;;;;;16.39;75.08;100459.91;4996571;28;20037;-75
2022/10/24 09:31:16;;;;;;;7.95;1.73;;;;;;;16.50;74.71;100443.16;4989699;28;20022;-75
2022/10/24 09:33:44;;;;;;;9.45;1.33;;;;;;;16.54;74.41;100455.56;4989870;28;20061;-74
2022/10/24 09:36:13;;;;;;;6.20;1.27;;;;;;;16.50;73.95;100459.63;5006449;28;20113;-75
2022/10/24 09:38:40;;;;;;;5.47;1.20;;;;;;;16.55;74.05;100462.78;5000171;28;20482;-75
2022/10/24 09:41:12;;;;;;;9.98;1.63;;;;;;;16.59;72.88;100464.19;5004710;28;20034;-75
2022/10/24 09:43:43;;;;;;;7.50;1.45;;;;;;;16.59;72.74;100458.69;5004285;28;20113;-75
2022/10/24 09:46:12;;;;;;;9.32;1.30;;;;;;;16.59;73.99;100481.53;4993850;28;20474;-75
2022/10/24 09:48:40;;;;;;;7.78;2.03;;;;;;;16.62;73.87;100472.13;4997156;28;20109;-74
2022/10/24 09:51:06;;;;;;;12.88;1.83;;;;;;;16.61;72.92;100467.66;4993119;28;20398;-74
2022/10/24 09:53:54;;;;;;;10.13;2.45;;;;;;;16.67;73.36;100471.63;4993335;28;20045;-74
2022/10/24 09:56:19;;;;;;;7.47;1.75;;;;;;;16.70;71.95;100477.69;5002809;28;20037;-75
2022/10/24 09:58:45;;;;;;;9.38;1.67;;;;;;;16.70;72.73;100480.44;4992946;28;20038;-74
2022/10/24 10:01:13;;;;;;;8.75;1.67;;;;;;;16.70;72.21;100499.66;4992194;28;20041;-75
2022/10/24 10:03:39;;;;;;;6.35;1.60;;;;;;;16.72;72.42;100478.41;4991594;28;20038;-75
2022/10/24 10:06:19;;;;;;;8.48;1.60;;;;;;;16.76;71.79;100487.19;4994813;28;20397;-74
2022/10/24 10:08:54;;;;;;;9.23;1.98;;;;;;;16.77;72.24;100489.78;4993702;28;20050;-74
2022/10/24 10:11:31;;;;;;;7.45;1.70;;;;;;;16.76;71.70;100496.28;5001664;28;20060;-74
2022/10/24 10:14:00;;;;;;;10.23;1.90;;;;;;;16.81;72.14;100502.16;4993527;28;20038;-75
2022/10/24 10:16:37;;;;;;;9.90;1.55;;;;;;;16.87;72.15;100500.66;4992624;28;20121;-74
2022/10/24 10:19:23;;;;;;;7.55;1.60;;;;;;;17.05;73.61;100506.13;5003827;28;20424;-75
2022/10/24 10:21:54;;;;;;;14.65;2.03;;;;;;;17.24;72.15;100510.53;4999514;28;20041;-75
2022/10/24 10:24:46;;;;;;;11.25;2.05;;;;;;;17.44;71.85;100517.53;4998879;28;20519;-75
2022/10/24 10:27:35;;;;;;;9.10;1.55;;;;;;;17.66;69.95;100510.56;4978426;28;20041;-74
2022/10/24 10:30:13;;;;;;;8.57;1.73;;;;;;;17.77;69.02;100506.72;4990277;28;20121;-74
2022/10/24 10:33:05;;;;;;;7.55;1.40;;;;;;;17.87;68.55;100539.59;4999450;28;20045;-75
2022/10/24 10:35:41;;;;;;;13.38;1.90;;;;;;;17.98;68.99;100526.38;5000655;28;20148;-75
2022/10/24 10:38:19;;;;;;;8.13;1.45;;;;;;;18.07;67.25;100533.66;4998804;28;20546;-74
2022/10/24 10:40:52;;;;;;;8.65;1.88;;;;;;;18.08;67.43;100540.88;4991542;28;20489;-74
2022/10/24 10:43:43;;;;;;;5.43;1.40;;;;;;;17.94;68.26;100563.53;4992574;28;20050;-74
2022/10/24 10:46:36;;;;;;;8.27;2.05;;;;;;;17.71;67.49;100560.47;4991892;28;20064;-74
2022/10/24 10:49:08;;;;;;;7.75;1.60;;;;;;;17.47;67.33;100552.94;4992256;28;20458;-74
2022/10/24 10:51:51;;;;;;;5.72;1.52;;;;;;;17.31;68.13;100559.22;5010222;28;20038;-75
2022/10/24 10:54:53;;;;;;;9.23;2.40;;;;;;;17.14;70.06;100549.13;5006393;28;20042;-74
2022/10/24 10:57:36;;;;;;;10.23;1.52;;;;;;;16.94;70.46;100559.47;4992067;28;20061;-75
2022/10/24 11:00:09;;;;;;;3.90;1.55;;;;;;;16.81;71.16;100581.00;4991944;28;20442;-74
2022/10/24 11:02:46;;;;;;;6.75;1.40;;;;;;;16.66;72.16;100572.41;4993273;28;20046;-75
2022/10/24 11:05:31;;;;;;;8.68;1.95;;;;;;;16.55;73.66;100575.38;4997722;28;20061;-75
2022/10/24 11:08:38;;;;;;;6.78;1.40;;;;;;;16.47;74.80;100575.31;4990645;28;20041;-74
2022/10/24 11:11:10;;;;;;;5.00;1.40;;;;;;;16.36;75.78;100570.88;4997906;28;20529;-74
2022/10/24 11:13:41;;;;;;;8.23;1.60;;;;;;;16.30;75.83;100572.38;4991677;28;20108;-74
2022/10/24 11:16:11;;;;;;;6.13;1.83;;;;;;;16.35;76.89;100574.66;4998038;28;20120;-75
2022/10/24 11:18:41;;;;;;;7.10;1.75;;;;;;;16.50;77.09;100581.34;4997768;28;20041;-75
2022/10/24 11:21:08;;;;;;;10.40;1.63;;;;;;;16.68;77.40;100573.09;4999593;28;20055;-74
2022/10/24 11:23:49;;;;;;;11.23;1.70;;;;;;;16.92;76.08;100574.38;4999932;28;20478;-75
2022/10/24 11:26:44;;;;;;;10.63;2.03;;;;;;;17.16;75.04;100571.84;5003233;28;20240;-74
2022/10/24 11:29:28;;;;;;;7.80;1.70;;;;;;;17.46;75.24;100569.63;4991977;28;20043;-75
2022/10/24 11:31:59;;;;;;;12.57;2.25;;;;;;;17.59;72.72;100565.41;4990761;28;20034;-74
2022/10/24 11:34:36;;;;;;;10.45;1.73;;;;;;;17.56;73.19;100575.88;4990962;28;20160;-74
2022/10/24 11:37:19;;;;;;;10.48;2.15;;;;;;;17.52;74.32;100577.22;5010984;28;20512;-75